createdAt,value
2018-10-05T00:00:19.759Z,2.40
2018-10-05T00:02:48.162Z,2.07
2018-10-05T00:05:16.789Z,1.97
2018-10-05T00:07:45.078Z,2.60
2018-10-05T00:10:13.444Z,2.63
2018-10-05T00:12:42.050Z,2.10
2018-10-05T00:15:10.585Z,2.67
2018-10-05T00:17:39.057Z,2.77
2018-10-05T00:20:07.532Z,2.50
2018-10-05T00:22:35.999Z,2.90
2018-10-05T00:25:04.518Z,2.50
2018-10-05T00:27:32.868Z,2.10
2018-10-05T00:30:01.247Z,2.30
2018-10-05T00:32:29.654Z,2.47
2018-10-05T00:34:57.919Z,2.30
2018-10-05T00:37:26.287Z,2.23
2018-10-05T00:39:54.705Z,2.23
2018-10-05T00:42:23.067Z,2.57
2018-10-05T00:44:51.686Z,2.33
2018-10-05T00:47:20.031Z,2.37
2018-10-05T00:49:48.393Z,2.53
2018-10-05T00:52:16.866Z,2.17
2018-10-05T00:54:45.301Z,2.07
2018-10-05T00:57:13.846Z,2.43
2018-10-05T00:59:42.475Z,2.20
2018-10-05T01:02:10.785Z,2.83
2018-10-05T01:04:39.350Z,2.27
2018-10-05T01:07:07.646Z,2.30
2018-10-05T01:09:35.981Z,2.53
2018-10-05T01:12:04.826Z,2.33
2018-10-05T01:14:33.135Z,2.60
2018-10-05T01:17:01.441Z,2.27
2018-10-05T01:19:29.733Z,2.10
2018-10-05T01:21:58.256Z,2.37
2018-10-05T01:24:26.519Z,2.93
2018-10-05T01:26:54.849Z,2.83
2018-10-05T01:29:23.295Z,2.60
2018-10-05T01:31:51.751Z,2.60
2018-10-05T01:34:20.038Z,2.80
2018-10-05T01:36:48.436Z,2.33
2018-10-05T01:39:16.811Z,2.40
2018-10-05T01:41:45.215Z,2.63
2018-10-05T01:44:13.550Z,2.27
2018-10-05T01:46:42.119Z,2.97
2018-10-05T01:49:10.487Z,2.87
2018-10-05T01:51:38.904Z,2.23
2018-10-05T01:54:07.647Z,2.13
2018-10-05T01:56:36.561Z,2.60
2018-10-05T01:59:04.986Z,2.50
2018-10-05T02:01:33.763Z,2.50
2018-10-05T02:04:02.181Z,2.47
2018-10-05T02:06:30.601Z,2.27
2018-10-05T02:08:58.980Z,2.23
2018-10-05T02:11:27.325Z,2.47
2018-10-05T02:13:55.637Z,2.10
2018-10-05T02:16:23.988Z,2.80
2018-10-05T02:18:52.429Z,2.30
2018-10-05T02:21:20.804Z,2.37
2018-10-05T02:23:49.238Z,2.57
2018-10-05T02:26:17.608Z,2.37
2018-10-05T02:28:45.985Z,2.27
2018-10-05T02:31:14.403Z,2.93
2018-10-05T02:33:42.774Z,2.77
2018-10-05T02:36:11.116Z,2.17
2018-10-05T02:38:39.470Z,2.37
2018-10-05T02:41:07.908Z,2.37
2018-10-05T02:43:36.342Z,2.27
2018-10-05T02:46:04.714Z,1.80
2018-10-05T02:48:33.134Z,2.33
2018-10-05T02:51:01.449Z,2.50
2018-10-05T02:53:29.827Z,2.50
2018-10-05T02:55:58.244Z,2.07
2018-10-05T02:58:26.560Z,2.00
2018-10-05T03:01:06.389Z,2.50
2018-10-05T03:03:34.903Z,2.00
2018-10-05T03:06:03.243Z,2.33
2018-10-05T03:08:31.626Z,2.20
2018-10-05T03:10:59.947Z,2.43
2018-10-05T03:13:28.296Z,2.07
2018-10-05T03:15:56.898Z,2.13
2018-10-05T03:18:25.276Z,2.20
2018-10-05T03:20:53.612Z,2.33
2018-10-05T03:23:21.987Z,2.30
2018-10-05T03:25:50.343Z,2.33
2018-10-05T03:28:18.685Z,2.70
2018-10-05T03:30:47.041Z,2.43
2018-10-05T03:33:15.348Z,2.50
2018-10-05T03:35:43.729Z,2.20
2018-10-05T03:38:12.143Z,2.40
2018-10-05T03:40:40.721Z,2.67
2018-10-05T03:43:09.364Z,2.53
2018-10-05T03:45:37.708Z,2.30
2018-10-05T03:48:06.164Z,2.27
2018-10-05T03:50:34.825Z,2.60
2018-10-05T03:53:03.478Z,1.70
2018-10-05T03:55:31.826Z,1.77
2018-10-05T03:58:00.163Z,2.13
2018-10-05T04:00:28.669Z,2.03
2018-10-05T04:02:57.105Z,1.97
2018-10-05T04:05:25.501Z,2.27
2018-10-05T04:07:53.854Z,2.20
2018-10-05T04:10:22.188Z,2.23
2018-10-05T04:12:50.518Z,2.30
2018-10-05T04:15:18.999Z,2.20
2018-10-05T04:17:47.611Z,2.60
2018-10-05T04:20:15.935Z,2.00
2018-10-05T04:22:44.274Z,2.03
2018-10-05T04:25:12.657Z,2.00
2018-10-05T04:27:41.098Z,2.30
2018-10-05T04:30:09.555Z,2.17
2018-10-05T04:32:38.144Z,2.07
2018-10-05T04:35:06.643Z,2.07
2018-10-05T04:37:35.205Z,2.43
2018-10-05T04:40:03.768Z,2.10
2018-10-05T04:42:32.096Z,2.20
2018-10-05T04:45:00.700Z,1.93
2018-10-05T04:47:29.180Z,1.90
2018-10-05T04:49:57.585Z,2.37
2018-10-05T04:52:26.044Z,2.03
2018-10-05T04:54:54.405Z,2.27
2018-10-05T04:57:22.810Z,2.10
2018-10-05T04:59:51.125Z,2.20
2018-10-05T05:02:19.542Z,2.03
2018-10-05T05:04:47.899Z,2.97
2018-10-05T05:07:16.229Z,2.10
2018-10-05T05:09:44.702Z,2.30
2018-10-05T05:12:13.158Z,2.50
2018-10-05T05:14:41.464Z,2.50
2018-10-05T05:17:09.947Z,2.40
2018-10-05T05:19:38.478Z,2.53
2018-10-05T05:22:07.096Z,2.20
2018-10-05T05:24:35.692Z,2.80
2018-10-05T05:27:04.429Z,2.70
2018-10-05T05:29:32.826Z,2.40
2018-10-05T05:32:01.516Z,2.17
2018-10-05T05:34:29.959Z,2.30
2018-10-05T05:36:58.489Z,1.93
2018-10-05T05:39:26.967Z,1.97
2018-10-05T05:41:55.669Z,2.47
2018-10-05T05:44:24.029Z,2.37
2018-10-05T05:46:52.491Z,2.20
2018-10-05T05:49:21.079Z,2.70
2018-10-05T05:51:49.778Z,2.03
2018-10-05T05:54:18.183Z,2.43
2018-10-05T05:56:46.548Z,2.67
2018-10-05T05:59:14.902Z,2.60
2018-10-05T06:01:43.308Z,2.70
2018-10-05T06:04:11.710Z,2.63
2018-10-05T06:06:40.240Z,2.50
2018-10-05T06:09:09.356Z,2.80
2018-10-05T06:11:38.070Z,2.70
2018-10-05T06:14:07.632Z,2.43
2018-10-05T06:16:36.208Z,2.93
2018-10-05T06:19:05.692Z,2.50
2018-10-05T06:21:34.183Z,2.40
2018-10-05T06:24:02.605Z,2.83
2018-10-05T06:26:31.207Z,2.80
2018-10-05T06:28:59.697Z,2.90
2018-10-05T06:31:28.045Z,3.10
2018-10-05T06:33:56.429Z,2.83
2018-10-05T06:36:24.806Z,3.00
2018-10-05T06:38:53.172Z,2.67
2018-10-05T06:41:21.599Z,2.90
2018-10-05T06:43:50.100Z,3.20
2018-10-05T06:46:18.537Z,3.33
2018-10-05T06:48:46.928Z,3.07
2018-10-05T06:51:15.512Z,3.03
2018-10-05T06:53:43.959Z,2.83
2018-10-05T06:56:12.312Z,3.00
2018-10-05T06:58:40.744Z,3.37
2018-10-05T07:01:09.141Z,3.10
2018-10-05T07:03:37.783Z,3.17
2018-10-05T07:06:06.271Z,3.30
2018-10-05T07:08:35.109Z,3.00
2018-10-05T07:11:03.615Z,3.10
2018-10-05T07:13:31.959Z,2.97
2018-10-05T07:16:00.421Z,3.37
2018-10-05T07:18:29.004Z,3.20
2018-10-05T07:20:57.464Z,2.90
2018-10-05T07:23:25.943Z,2.70
2018-10-05T07:25:54.851Z,3.10
2018-10-05T07:28:23.330Z,2.83
2018-10-05T07:30:51.849Z,3.20
2018-10-05T07:33:20.407Z,3.27
2018-10-05T07:35:48.868Z,2.70
2018-10-05T07:38:17.602Z,3.07
2018-10-05T07:40:46.017Z,3.27
2018-10-05T07:43:14.443Z,2.70
2018-10-05T07:45:42.832Z,3.60
2018-10-05T07:48:11.375Z,3.33
2018-10-05T07:50:39.784Z,3.53
2018-10-05T07:53:08.408Z,3.33
2018-10-05T07:55:36.975Z,3.63
2018-10-05T07:58:05.714Z,3.70
2018-10-05T08:00:34.257Z,3.80
2018-10-05T08:03:02.978Z,4.00
2018-10-05T08:05:31.333Z,3.97
2018-10-05T08:07:59.740Z,3.37
2018-10-05T08:10:28.107Z,3.07
2018-10-05T08:12:56.453Z,3.57
2018-10-05T08:15:24.792Z,3.50
2018-10-05T08:17:53.169Z,3.00
2018-10-05T08:20:21.824Z,3.00
2018-10-05T08:22:50.359Z,3.00
2018-10-05T08:25:18.829Z,2.80
2018-10-05T08:27:47.431Z,3.23
2018-10-05T08:30:15.995Z,2.70
2018-10-05T08:32:44.588Z,2.93
2018-10-05T08:35:13.065Z,3.00
2018-10-05T08:37:41.553Z,3.03
2018-10-05T08:40:10.559Z,2.92
2018-10-05T08:42:39.008Z,2.72
2018-10-05T08:45:08.083Z,3.20
2018-10-05T08:47:36.552Z,2.85
2018-10-05T08:50:05.597Z,2.85
2018-10-05T08:52:34.282Z,2.90
2018-10-05T08:55:02.864Z,3.00
2018-10-05T08:57:31.715Z,3.02
2018-10-05T09:00:00.280Z,2.75
2018-10-05T09:02:28.975Z,2.87
2018-10-05T09:04:57.288Z,2.50
2018-10-05T09:07:25.636Z,3.27
2018-10-05T09:09:53.995Z,2.77
2018-10-05T09:12:22.593Z,3.35
2018-10-05T09:14:50.971Z,3.12
2018-10-05T09:17:19.358Z,2.95
2018-10-05T09:19:47.736Z,3.33
2018-10-05T09:22:16.205Z,3.22
2018-10-05T09:24:44.584Z,3.00
2018-10-05T09:27:13.144Z,3.20
2018-10-05T09:29:41.522Z,2.87
2018-10-05T09:32:09.899Z,2.95
2018-10-05T09:34:38.416Z,2.98
2018-10-05T09:37:06.864Z,3.30
2018-10-05T09:39:35.325Z,4.03
2018-10-05T09:42:04.511Z,3.80
2018-10-05T09:44:33.075Z,3.55
2018-10-05T09:47:01.807Z,3.90
2018-10-05T09:49:30.400Z,3.42
2018-10-05T09:51:59.062Z,3.45
2018-10-05T09:54:27.558Z,3.52
2018-10-05T09:56:56.041Z,3.42
2018-10-05T09:59:24.429Z,3.05
2018-10-05T10:01:57.080Z,4.00
2018-10-05T10:04:25.684Z,3.10
2018-10-05T10:06:54.403Z,3.30
2018-10-05T10:09:22.821Z,3.58
2018-10-05T10:11:51.233Z,3.15
2018-10-05T10:14:19.561Z,2.95
2018-10-05T10:16:47.892Z,2.98
2018-10-05T10:19:16.312Z,2.90
2018-10-05T10:21:44.746Z,3.08
2018-10-05T10:24:13.176Z,2.80
2018-10-05T10:26:41.561Z,3.42
2018-10-05T10:29:10.079Z,2.95
2018-10-05T10:31:38.404Z,2.90
2018-10-05T10:34:07.422Z,3.20
2018-10-05T10:36:36.308Z,3.22
2018-10-05T10:39:06.584Z,3.25
2018-10-05T10:41:35.341Z,2.83
2018-10-05T10:44:04.820Z,2.80
2018-10-05T10:46:33.213Z,2.50
2018-10-05T10:49:01.750Z,2.85
2018-10-05T10:51:30.367Z,3.05
2018-10-05T10:53:59.138Z,3.40
2018-10-05T10:56:27.704Z,3.05
2018-10-05T10:58:56.613Z,2.70
2018-10-05T11:01:25.801Z,2.92
2018-10-05T11:03:54.650Z,2.35
2018-10-05T11:06:23.220Z,2.87
2018-10-05T11:08:51.808Z,2.92
2018-10-05T11:11:20.335Z,2.70
2018-10-05T11:13:48.816Z,3.72
2018-10-05T11:16:17.354Z,2.90
2018-10-05T11:18:46.318Z,2.83
2018-10-05T11:21:15.399Z,2.77
2018-10-05T11:23:45.028Z,3.12
2018-10-05T11:26:13.652Z,2.60
2018-10-05T11:28:42.381Z,2.87
2018-10-05T11:31:12.056Z,2.80
2018-10-05T11:33:40.748Z,2.80
2018-10-05T11:36:09.321Z,2.72
2018-10-05T11:38:39.709Z,2.87
2018-10-05T11:41:08.596Z,2.72
2018-10-05T11:43:37.082Z,2.42
2018-10-05T11:46:06.002Z,2.60
2018-10-05T11:48:35.278Z,2.65
2018-10-05T11:51:03.963Z,2.87
2018-10-05T11:53:32.324Z,2.33
2018-10-05T11:56:01.703Z,2.55
2018-10-05T11:58:30.027Z,2.40
2018-10-05T12:00:58.541Z,2.50
2018-10-05T12:03:26.980Z,2.47
2018-10-05T12:05:55.576Z,2.37
2018-10-05T12:08:24.030Z,2.30
2018-10-05T12:10:52.674Z,2.35
2018-10-05T12:13:21.197Z,2.83
2018-10-05T12:15:49.588Z,2.45
2018-10-05T12:18:19.036Z,2.25
2018-10-05T12:20:47.581Z,2.70
2018-10-05T12:23:16.046Z,2.25
2018-10-05T12:25:44.483Z,2.33
2018-10-05T12:28:12.949Z,2.85
2018-10-05T12:30:41.312Z,2.40
2018-10-05T12:33:09.843Z,2.50
2018-10-05T12:35:38.652Z,2.27
2018-10-05T12:38:07.326Z,2.20
2018-10-05T12:40:36.044Z,2.33
2018-10-05T12:43:04.446Z,2.43
2018-10-05T12:45:33.314Z,2.53
2018-10-05T12:48:01.750Z,2.50
2018-10-05T12:50:30.240Z,2.20
2018-10-05T12:52:58.643Z,2.23
2018-10-05T12:55:27.006Z,2.50
2018-10-05T12:57:55.345Z,2.13
2018-10-05T13:00:23.754Z,2.37
2018-10-05T13:02:52.143Z,2.07
2018-10-05T13:05:20.727Z,2.03
2018-10-05T13:07:55.774Z,2.20
2018-10-05T13:10:24.238Z,2.37
2018-10-05T13:12:52.738Z,2.40
2018-10-05T13:15:21.112Z,2.60
2018-10-05T13:17:49.512Z,2.40
2018-10-05T13:20:18.189Z,2.60
2018-10-05T13:22:46.645Z,2.23
2018-10-05T13:25:15.093Z,2.60
2018-10-05T13:27:43.573Z,2.53
2018-10-05T13:30:11.913Z,2.47
2018-10-05T13:32:40.485Z,2.13
2018-10-05T13:35:08.900Z,2.20
2018-10-05T13:37:37.781Z,2.80
2018-10-05T13:40:06.422Z,2.20
2018-10-05T13:42:35.473Z,2.50
2018-10-05T13:45:03.893Z,2.10
2018-10-05T13:47:32.389Z,2.40
2018-10-05T13:50:00.811Z,2.17
2018-10-05T13:52:29.287Z,2.30
2018-10-05T13:54:57.725Z,2.27
2018-10-05T13:57:26.097Z,2.27
2018-10-05T13:59:54.457Z,2.27
2018-10-05T14:02:23.191Z,2.13
2018-10-05T14:04:51.570Z,1.97
2018-10-05T14:07:20.143Z,2.60
2018-10-05T14:09:48.522Z,2.42
2018-10-05T14:12:16.908Z,2.08
2018-10-05T14:14:45.643Z,2.30
2018-10-05T14:17:14.176Z,2.33
2018-10-05T14:19:42.640Z,2.37
2018-10-05T14:22:11.137Z,2.33
2018-10-05T14:24:39.573Z,2.30
2018-10-05T14:27:08.164Z,2.15
2018-10-05T14:29:36.600Z,2.22
2018-10-05T14:32:05.157Z,2.47
2018-10-05T14:34:33.565Z,2.22
2018-10-05T14:37:02.005Z,2.12
2018-10-05T14:39:30.372Z,2.10
2018-10-05T14:41:58.762Z,2.17
2018-10-05T14:44:27.073Z,2.00
2018-10-05T14:46:55.424Z,2.08
2018-10-05T14:49:23.857Z,2.42
2018-10-05T14:51:52.192Z,2.15
2018-10-05T14:54:20.565Z,2.37
2018-10-05T14:56:48.910Z,2.00
2018-10-05T14:59:17.445Z,2.50
2018-10-05T15:01:45.875Z,2.27
2018-10-05T15:04:14.250Z,2.33
2018-10-05T15:06:42.645Z,2.30
2018-10-05T15:09:11.045Z,2.30
2018-10-05T15:11:39.556Z,2.08
2018-10-05T15:14:08.109Z,2.17
2018-10-05T15:16:36.741Z,2.37
2018-10-05T15:19:05.720Z,2.10
2018-10-05T15:21:34.516Z,2.37
2018-10-05T15:24:02.889Z,2.00
2018-10-05T15:26:31.269Z,1.93
2018-10-05T15:28:59.633Z,1.90
2018-10-05T15:31:28.044Z,2.03
2018-10-05T15:33:56.684Z,2.10
2018-10-05T15:36:25.017Z,2.50
2018-10-05T15:38:53.457Z,2.30
2018-10-05T15:41:21.812Z,2.10
2018-10-05T15:43:50.219Z,2.30
2018-10-05T15:46:58.080Z,2.27
2018-10-05T15:49:26.727Z,1.97
2018-10-05T15:51:55.137Z,2.10
2018-10-05T15:54:23.728Z,2.10
2018-10-05T15:56:52.363Z,2.23
2018-10-05T15:59:20.987Z,2.30
2018-10-05T16:01:49.666Z,2.00
2018-10-05T16:04:18.091Z,2.20
2018-10-05T16:06:47.048Z,2.30
2018-10-05T16:09:15.454Z,1.87
2018-10-05T16:11:43.826Z,2.10
2018-10-05T16:14:12.380Z,1.97
2018-10-05T16:16:40.936Z,2.20
2018-10-05T16:19:09.555Z,2.23
2018-10-05T16:21:38.359Z,2.03
2018-10-05T16:24:08.961Z,2.10
2018-10-05T16:26:37.333Z,2.43
2018-10-05T16:29:05.813Z,1.97
2018-10-05T16:31:34.713Z,2.23
2018-10-05T16:34:03.339Z,1.87
2018-10-05T16:36:31.793Z,2.80
2018-10-05T16:39:00.246Z,2.23
2018-10-05T16:41:28.563Z,1.80
2018-10-05T16:43:57.100Z,2.13
2018-10-05T16:46:25.715Z,2.23
2018-10-05T16:48:54.169Z,2.20
2018-10-05T16:51:22.541Z,2.00
2018-10-05T16:53:50.981Z,2.20
2018-10-05T16:56:19.290Z,2.20
2018-10-05T16:58:47.769Z,2.20
2018-10-05T17:01:16.336Z,2.43
2018-10-05T17:03:44.791Z,2.60
2018-10-05T17:06:13.277Z,3.10
2018-10-05T17:08:44.148Z,4.70
2018-10-05T17:11:12.507Z,3.57
2018-10-05T17:13:40.845Z,3.47
2018-10-05T17:16:09.414Z,3.47
2018-10-05T17:18:37.968Z,3.77
2018-10-05T17:21:06.680Z,4.03
2018-10-05T17:23:35.185Z,3.67
2018-10-05T17:26:03.547Z,3.47
2018-10-05T17:28:31.993Z,3.23
2018-10-05T17:31:00.431Z,2.63
2018-10-05T17:33:28.858Z,3.03
2018-10-05T17:35:57.358Z,2.73
2018-10-05T17:38:25.757Z,3.03
2018-10-05T17:40:54.086Z,3.33
2018-10-05T17:43:22.464Z,3.30
2018-10-05T17:45:51.097Z,3.10
2018-10-05T17:48:19.564Z,2.80
2018-10-05T17:50:48.092Z,3.50
2018-10-05T17:53:16.470Z,3.67
2018-10-05T17:55:45.281Z,3.80
2018-10-05T17:58:13.848Z,3.17
2018-10-05T18:00:42.480Z,3.30
2018-10-05T18:03:10.892Z,3.27
2018-10-05T18:05:39.302Z,3.30
2018-10-05T18:08:07.894Z,3.23
2018-10-05T18:10:36.781Z,3.20
2018-10-05T18:13:05.572Z,2.70
2018-10-05T18:15:33.947Z,3.10
2018-10-05T18:18:02.298Z,2.77
2018-10-05T18:20:31.178Z,2.80
2018-10-05T18:23:00.026Z,2.97
2018-10-05T18:25:28.400Z,2.50
2018-10-05T18:27:56.869Z,2.80
2018-10-05T18:30:25.252Z,3.10
2018-10-05T18:32:53.624Z,2.67
2018-10-05T18:35:22.051Z,3.00
2018-10-05T18:37:50.628Z,2.97
2018-10-05T18:40:19.056Z,2.63
2018-10-05T18:42:47.433Z,2.90
2018-10-05T18:45:15.941Z,2.77
2018-10-05T18:47:44.490Z,2.80
2018-10-05T18:50:13.121Z,3.03
2018-10-05T18:52:41.547Z,2.50
2018-10-05T18:55:10.217Z,3.10
2018-10-05T18:57:38.619Z,2.50
2018-10-05T19:00:07.250Z,2.57
2018-10-05T19:02:35.816Z,3.00
2018-10-05T19:05:04.229Z,2.93
2018-10-05T19:07:32.669Z,2.70
2018-10-05T19:10:01.261Z,2.53
2018-10-05T19:12:29.647Z,2.80
2018-10-05T19:14:58.289Z,2.53
2018-10-05T19:17:26.715Z,2.77
2018-10-05T19:19:55.172Z,3.07
2018-10-05T19:22:23.681Z,2.63
2018-10-05T19:24:52.073Z,3.00
2018-10-05T19:27:20.557Z,3.20
2018-10-05T19:29:49.016Z,2.53
2018-10-05T19:32:17.523Z,3.20
2018-10-05T19:34:45.904Z,2.60
2018-10-05T19:37:14.548Z,2.80
2018-10-05T19:39:43.045Z,2.73
2018-10-05T19:42:11.745Z,2.80
2018-10-05T19:44:40.136Z,2.70
2018-10-05T19:47:08.594Z,2.90
2018-10-05T19:49:37.080Z,3.13
2018-10-05T19:52:05.787Z,2.47
2018-10-05T19:54:34.328Z,2.77
2018-10-05T19:57:02.745Z,2.87
2018-10-05T19:59:31.107Z,2.90
2018-10-05T20:01:59.560Z,2.40
2018-10-05T20:04:27.848Z,2.57
2018-10-05T20:06:56.827Z,2.77
2018-10-05T20:09:25.413Z,2.50
2018-10-05T20:11:53.789Z,2.70
2018-10-05T20:14:22.242Z,2.43
2018-10-05T20:16:50.916Z,3.00
2018-10-05T20:19:19.536Z,2.33
2018-10-05T20:21:48.053Z,3.00
2018-10-05T20:24:16.800Z,2.87
2018-10-05T20:26:45.174Z,3.37
2018-10-05T20:29:13.614Z,3.10
2018-10-05T20:31:42.112Z,3.07
2018-10-05T20:34:10.782Z,2.97
2018-10-05T20:36:39.454Z,2.73
2018-10-05T20:39:08.217Z,3.20
2018-10-05T20:41:37.563Z,3.07
2018-10-05T20:44:06.140Z,2.87
2018-10-05T20:46:34.637Z,3.30
2018-10-05T20:49:03.554Z,3.40
2018-10-05T20:51:31.957Z,3.27
2018-10-05T20:54:00.331Z,3.00
2018-10-05T20:56:29.062Z,3.20
2018-10-05T20:58:57.391Z,3.17
2018-10-05T21:01:25.762Z,3.33
2018-10-05T21:03:54.187Z,3.33
2018-10-05T21:06:22.597Z,2.83
2018-10-05T21:08:51.143Z,3.23
2018-10-05T21:11:19.768Z,3.07
2018-10-05T21:13:48.129Z,2.87
2018-10-05T21:16:16.495Z,3.27
2018-10-05T21:18:44.885Z,3.00
2018-10-05T21:21:13.606Z,2.90
2018-10-05T21:23:42.050Z,3.07
2018-10-05T21:26:10.433Z,2.60
2018-10-05T21:28:38.856Z,2.90
2018-10-05T21:31:07.413Z,2.90
2018-10-05T21:33:35.886Z,2.67
2018-10-05T21:36:04.262Z,2.67
2018-10-05T21:38:32.776Z,2.80
2018-10-05T21:41:01.112Z,2.53
2018-10-05T21:43:29.554Z,2.47
2018-10-05T21:45:57.905Z,2.90
2018-10-05T21:48:26.288Z,2.97
2018-10-05T21:50:54.771Z,2.80
2018-10-05T21:53:23.477Z,2.67
2018-10-05T21:55:51.874Z,2.90
2018-10-05T21:58:20.520Z,2.50
2018-10-05T22:00:48.852Z,2.33
2018-10-05T22:03:17.300Z,3.10
2018-10-05T22:05:45.664Z,2.87
2018-10-05T22:08:14.068Z,3.17
2018-10-05T22:10:42.441Z,2.40
2018-10-05T22:13:10.852Z,3.07
2018-10-05T22:15:39.505Z,2.40
2018-10-05T22:18:08.244Z,2.73
2018-10-05T22:20:37.018Z,3.17
2018-10-05T22:23:05.470Z,2.80
2018-10-05T22:25:33.840Z,2.50
2018-10-05T22:28:02.215Z,2.77
2018-10-05T22:30:30.684Z,2.60
2018-10-05T22:32:59.020Z,3.00
2018-10-05T22:35:27.554Z,3.10
2018-10-05T22:37:56.069Z,2.53
2018-10-05T22:40:24.485Z,2.70
2018-10-05T22:42:52.900Z,3.03
2018-10-05T22:45:21.342Z,3.40
2018-10-05T22:47:49.727Z,3.00
2018-10-05T22:50:18.075Z,3.00
2018-10-05T22:52:46.416Z,2.90
2018-10-05T22:55:14.814Z,2.60
2018-10-05T22:57:43.397Z,2.80
2018-10-05T23:00:11.798Z,2.37
2018-10-05T23:02:40.262Z,2.53
2018-10-05T23:05:08.679Z,2.63
2018-10-05T23:07:37.165Z,2.83
2018-10-05T23:10:05.621Z,4.00
2018-10-05T23:12:34.020Z,2.83
2018-10-05T23:15:03.068Z,2.60
2018-10-05T23:17:31.492Z,3.13
2018-10-05T23:19:59.857Z,2.90
2018-10-05T23:22:28.364Z,2.50
2018-10-05T23:24:56.787Z,2.73
2018-10-05T23:27:25.248Z,2.60
2018-10-05T23:29:53.651Z,3.30
2018-10-05T23:32:22.156Z,2.97
2018-10-05T23:34:50.618Z,3.23
2018-10-05T23:37:18.966Z,3.27
2018-10-05T23:39:47.324Z,2.73
2018-10-05T23:42:15.643Z,3.40
2018-10-05T23:44:44.001Z,3.13
2018-10-05T23:47:12.503Z,2.93
2018-10-05T23:49:40.862Z,2.83
2018-10-05T23:52:20.565Z,3.13
2018-10-05T23:54:48.921Z,2.97
2018-10-05T23:57:17.255Z,3.10
2018-10-05T23:59:45.618Z,3.00
